sensor_id;sensor_type;location;lat;lon;timestamp;temperature;humidity
36586;DHT22;22591;48.314;11.562;2023-03-09T00:00:07;8.60;99.90
36586;DHT22;22591;48.314;11.562;2023-03-09T00:02:36;8.70;99.90
36586;DHT22;22591;48.314;11.562;2023-03-09T00:05:03;8.90;99.90
36586;DHT22;22591;48.314;11.562;2023-03-09T00:07:29;9.10;99.90
36586;DHT22;22591;48.314;11.562;2023-03-09T00:09:56;9.30;99.90
36586;DHT22;22591;48.314;11.562;2023-03-09T00:12:22;9.40;99.90
36586;DHT22;22591;48.314;11.562;2023-03-09T00:14:52;9.70;99.90
36586;DHT22;22591;48.314;11.562;2023-03-09T00:17:17;9.90;99.90
36586;DHT22;22591;48.314;11.562;2023-03-09T00:19:43;10.20;99.90
36586;DHT22;22591;48.314;11.562;2023-03-09T00:22:08;10.50;99.90
36586;DHT22;22591;48.314;11.562;2023-03-09T00:24:34;10.60;99.90
36586;DHT22;22591;48.314;11.562;2023-03-09T00:27:01;10.70;99.90
36586;DHT22;22591;48.314;11.562;2023-03-09T00:29:29;10.80;99.90
36586;DHT22;22591;48.314;11.562;2023-03-09T00:31:56;10.80;99.90
36586;DHT22;22591;48.314;11.562;2023-03-09T00:34:22;10.80;99.90
36586;DHT22;22591;48.314;11.562;2023-03-09T00:36:48;10.80;99.90
36586;DHT22;22591;48.314;11.562;2023-03-09T00:39:15;10.80;99.90
36586;DHT22;22591;48.314;11.562;2023-03-09T00:41:42;10.90;99.90
36586;DHT22;22591;48.314;11.562;2023-03-09T00:44:09;10.90;99.90
36586;DHT22;22591;48.314;11.562;2023-03-09T00:46:35;10.90;99.90
36586;DHT22;22591;48.314;11.562;2023-03-09T00:49:02;10.90;99.90
36586;DHT22;22591;48.314;11.562;2023-03-09T00:51:32;10.90;99.90
36586;DHT22;22591;48.314;11.562;2023-03-09T00:53:58;10.90;99.90
36586;DHT22;22591;48.314;11.562;2023-03-09T00:56:26;11.00;99.90
36586;DHT22;22591;48.314;11.562;2023-03-09T00:58:52;11.00;99.90
36586;DHT22;22591;48.314;11.562;2023-03-09T01:01:18;11.00;99.90
36586;DHT22;22591;48.314;11.562;2023-03-09T01:03:44;11.00;99.90
36586;DHT22;22591;48.314;11.562;2023-03-09T01:06:11;10.90;99.90
36586;DHT22;22591;48.314;11.562;2023-03-09T01:08:38;10.90;99.90
36586;DHT22;22591;48.314;11.562;2023-03-09T01:11:08;10.90;99.90
36586;DHT22;22591;48.314;11.562;2023-03-09T01:13:34;10.80;99.90
36586;DHT22;22591;48.314;11.562;2023-03-09T01:16:00;10.80;99.90
36586;DHT22;22591;48.314;11.562;2023-03-09T01:18:25;10.70;99.90
36586;DHT22;22591;48.314;11.562;2023-03-09T01:20:51;10.70;99.90
36586;DHT22;22591;48.314;11.562;2023-03-09T01:23:16;10.70;99.90
36586;DHT22;22591;48.314;11.562;2023-03-09T01:25:42;10.80;99.90
36586;DHT22;22591;48.314;11.562;2023-03-09T01:28:07;10.80;99.90
36586;DHT22;22591;48.314;11.562;2023-03-09T01:30:33;10.80;99.90
36586;DHT22;22591;48.314;11.562;2023-03-09T01:32:59;10.70;99.90
36586;DHT22;22591;48.314;11.562;2023-03-09T01:35:25;10.60;99.90
36586;DHT22;22591;48.314;11.562;2023-03-09T01:37:50;10.50;99.90
36586;DHT22;22591;48.314;11.562;2023-03-09T01:40:19;10.40;99.90
36586;DHT22;22591;48.314;11.562;2023-03-09T01:42:53;10.40;99.90
36586;DHT22;22591;48.314;11.562;2023-03-09T01:47:45;10.30;99.90
36586;DHT22;22591;48.314;11.562;2023-03-09T01:50:13;10.40;99.90
36586;DHT22;22591;48.314;11.562;2023-03-09T01:52:39;10.40;99.90
36586;DHT22;22591;48.314;11.562;2023-03-09T01:55:12;10.40;99.90
36586;DHT22;22591;48.314;11.562;2023-03-09T01:57:51;10.40;99.90
36586;DHT22;22591;48.314;11.562;2023-03-09T02:00:23;10.40;99.90
36586;DHT22;22591;48.314;11.562;2023-03-09T02:02:57;10.50;99.90
36586;DHT22;22591;48.314;11.562;2023-03-09T02:08:00;10.70;99.90
36586;DHT22;22591;48.314;11.562;2023-03-09T02:12:57;10.90;99.90
36586;DHT22;22591;48.314;11.562;2023-03-09T02:15:23;11.10;99.90
36586;DHT22;22591;48.314;11.562;2023-03-09T02:17:49;11.20;99.90
36586;DHT22;22591;48.314;11.562;2023-03-09T02:20:22;11.20;99.90
36586;DHT22;22591;48.314;11.562;2023-03-09T02:22:49;11.20;99.90
36586;DHT22;22591;48.314;11.562;2023-03-09T02:27:52;11.30;99.90
36586;DHT22;22591;48.314;11.562;2023-03-09T02:30:18;11.10;99.90
36586;DHT22;22591;48.314;11.562;2023-03-09T02:32:44;10.90;99.90
36586;DHT22;22591;48.314;11.562;2023-03-09T02:35:10;10.70;99.90
36586;DHT22;22591;48.314;11.562;2023-03-09T02:37:38;10.40;99.90
36586;DHT22;22591;48.314;11.562;2023-03-09T02:40:14;10.20;99.90
36586;DHT22;22591;48.314;11.562;2023-03-09T02:42:41;10.00;99.90
36586;DHT22;22591;48.314;11.562;2023-03-09T02:45:11;9.80;99.90
36586;DHT22;22591;48.314;11.562;2023-03-09T02:47:37;9.60;99.90
36586;DHT22;22591;48.314;11.562;2023-03-09T02:50:05;9.40;99.90
36586;DHT22;22591;48.314;11.562;2023-03-09T02:52:31;9.30;99.90
36586;DHT22;22591;48.314;11.562;2023-03-09T02:54:57;9.10;99.90
36586;DHT22;22591;48.314;11.562;2023-03-09T02:57:23;9.10;99.90
36586;DHT22;22591;48.314;11.562;2023-03-09T02:59:48;9.00;99.90
36586;DHT22;22591;48.314;11.562;2023-03-09T03:02:14;8.90;99.90
36586;DHT22;22591;48.314;11.562;2023-03-09T03:04:39;8.80;99.90
36586;DHT22;22591;48.314;11.562;2023-03-09T03:07:05;8.70;99.90
36586;DHT22;22591;48.314;11.562;2023-03-09T03:09:30;8.70;99.90
36586;DHT22;22591;48.314;11.562;2023-03-09T03:11:57;8.80;99.90
36586;DHT22;22591;48.314;11.562;2023-03-09T03:14:22;8.80;99.90
36586;DHT22;22591;48.314;11.562;2023-03-09T03:16:48;8.90;99.90
36586;DHT22;22591;48.314;11.562;2023-03-09T03:19:13;8.80;99.90
36586;DHT22;22591;48.314;11.562;2023-03-09T03:21:39;8.80;99.90
36586;DHT22;22591;48.314;11.562;2023-03-09T03:24:05;8.80;99.90
36586;DHT22;22591;48.314;11.562;2023-03-09T03:26:30;8.80;99.90
36586;DHT22;22591;48.314;11.562;2023-03-09T03:28:56;8.80;99.90
36586;DHT22;22591;48.314;11.562;2023-03-09T03:31:22;8.80;99.90
36586;DHT22;22591;48.314;11.562;2023-03-09T03:33:47;8.90;99.90
36586;DHT22;22591;48.314;11.562;2023-03-09T03:36:13;8.80;99.90
36586;DHT22;22591;48.314;11.562;2023-03-09T03:38:38;8.80;99.90
36586;DHT22;22591;48.314;11.562;2023-03-09T03:41:06;8.80;99.90
36586;DHT22;22591;48.314;11.562;2023-03-09T03:43:31;8.70;99.90
36586;DHT22;22591;48.314;11.562;2023-03-09T03:45:57;8.70;99.90
36586;DHT22;22591;48.314;11.562;2023-03-09T03:48:22;8.70;99.90
36586;DHT22;22591;48.314;11.562;2023-03-09T03:50:48;8.80;99.90
36586;DHT22;22591;48.314;11.562;2023-03-09T03:53:13;8.90;99.90
36586;DHT22;22591;48.314;11.562;2023-03-09T03:55:39;8.80;99.90
36586;DHT22;22591;48.314;11.562;2023-03-09T03:58:05;8.80;99.90
36586;DHT22;22591;48.314;11.562;2023-03-09T04:00:30;8.80;99.90
36586;DHT22;22591;48.314;11.562;2023-03-09T04:02:56;8.90;99.90
36586;DHT22;22591;48.314;11.562;2023-03-09T04:05:22;8.90;99.90
36586;DHT22;22591;48.314;11.562;2023-03-09T04:07:48;8.90;99.90
36586;DHT22;22591;48.314;11.562;2023-03-09T04:10:13;8.90;99.90
36586;DHT22;22591;48.314;11.562;2023-03-09T04:12:39;8.90;99.90
36586;DHT22;22591;48.314;11.562;2023-03-09T04:15:05;8.80;99.90
36586;DHT22;22591;48.314;11.562;2023-03-09T04:17:30;8.80;99.90
36586;DHT22;22591;48.314;11.562;2023-03-09T04:19:56;8.80;99.90
36586;DHT22;22591;48.314;11.562;2023-03-09T04:22:22;8.90;99.90
36586;DHT22;22591;48.314;11.562;2023-03-09T04:24:48;8.90;99.90
36586;DHT22;22591;48.314;11.562;2023-03-09T04:27:14;9.00;99.90
36586;DHT22;22591;48.314;11.562;2023-03-09T04:29:39;9.00;99.90
36586;DHT22;22591;48.314;11.562;2023-03-09T04:32:05;9.00;99.90
36586;DHT22;22591;48.314;11.562;2023-03-09T04:34:31;9.10;99.90
36586;DHT22;22591;48.314;11.562;2023-03-09T04:36:56;9.10;99.90
36586;DHT22;22591;48.314;11.562;2023-03-09T04:39:23;9.10;99.90
36586;DHT22;22591;48.314;11.562;2023-03-09T04:41:49;9.00;99.90
36586;DHT22;22591;48.314;11.562;2023-03-09T04:44:15;9.00;99.90
36586;DHT22;22591;48.314;11.562;2023-03-09T04:46:40;9.00;99.90
36586;DHT22;22591;48.314;11.562;2023-03-09T04:49:06;9.00;99.90
36586;DHT22;22591;48.314;11.562;2023-03-09T04:51:32;9.00;99.90
36586;DHT22;22591;48.314;11.562;2023-03-09T04:53:57;9.10;99.90
36586;DHT22;22591;48.314;11.562;2023-03-09T04:56:23;9.00;99.90
36586;DHT22;22591;48.314;11.562;2023-03-09T04:58:48;9.10;99.90
36586;DHT22;22591;48.314;11.562;2023-03-09T05:01:14;9.10;99.90
36586;DHT22;22591;48.314;11.562;2023-03-09T05:03:39;9.10;99.90
36586;DHT22;22591;48.314;11.562;2023-03-09T05:06:05;9.10;99.90
36586;DHT22;22591;48.314;11.562;2023-03-09T05:08:31;9.10;99.90
36586;DHT22;22591;48.314;11.562;2023-03-09T05:10:56;9.20;99.90
36586;DHT22;22591;48.314;11.562;2023-03-09T05:13:22;9.10;99.90
36586;DHT22;22591;48.314;11.562;2023-03-09T05:15:47;9.20;99.90
36586;DHT22;22591;48.314;11.562;2023-03-09T05:18:13;9.20;99.90
36586;DHT22;22591;48.314;11.562;2023-03-09T05:20:38;9.20;99.90
36586;DHT22;22591;48.314;11.562;2023-03-09T05:23:05;9.30;99.90
36586;DHT22;22591;48.314;11.562;2023-03-09T05:25:31;9.30;99.90
36586;DHT22;22591;48.314;11.562;2023-03-09T05:27:57;9.40;99.90
36586;DHT22;22591;48.314;11.562;2023-03-09T05:30:22;9.40;99.90
36586;DHT22;22591;48.314;11.562;2023-03-09T05:32:48;9.40;99.90
36586;DHT22;22591;48.314;11.562;2023-03-09T05:35:16;9.40;99.90
36586;DHT22;22591;48.314;11.562;2023-03-09T05:37:41;9.50;99.90
36586;DHT22;22591;48.314;11.562;2023-03-09T05:40:08;9.40;99.90
36586;DHT22;22591;48.314;11.562;2023-03-09T05:42:33;9.40;99.90
36586;DHT22;22591;48.314;11.562;2023-03-09T05:44:59;9.40;99.90
36586;DHT22;22591;48.314;11.562;2023-03-09T05:47:27;9.30;99.90
36586;DHT22;22591;48.314;11.562;2023-03-09T05:49:52;9.20;99.90
36586;DHT22;22591;48.314;11.562;2023-03-09T05:52:18;9.20;99.90
36586;DHT22;22591;48.314;11.562;2023-03-09T05:54:44;9.30;99.90
36586;DHT22;22591;48.314;11.562;2023-03-09T05:57:11;9.30;99.90
36586;DHT22;22591;48.314;11.562;2023-03-09T05:59:36;9.30;99.90
36586;DHT22;22591;48.314;11.562;2023-03-09T06:02:02;9.30;99.90
36586;DHT22;22591;48.314;11.562;2023-03-09T06:04:28;9.30;99.90
36586;DHT22;22591;48.314;11.562;2023-03-09T06:06:53;9.30;99.90
36586;DHT22;22591;48.314;11.562;2023-03-09T06:09:19;9.40;99.90
36586;DHT22;22591;48.314;11.562;2023-03-09T06:11:45;9.30;99.90
36586;DHT22;22591;48.314;11.562;2023-03-09T06:14:10;9.30;99.90
36586;DHT22;22591;48.314;11.562;2023-03-09T06:16:36;9.40;99.90
36586;DHT22;22591;48.314;11.562;2023-03-09T06:19:01;9.40;99.90
36586;DHT22;22591;48.314;11.562;2023-03-09T06:21:27;9.40;99.90
36586;DHT22;22591;48.314;11.562;2023-03-09T06:23:53;9.40;99.90
36586;DHT22;22591;48.314;11.562;2023-03-09T06:26:20;9.40;99.90
36586;DHT22;22591;48.314;11.562;2023-03-09T06:28:46;9.40;99.90
36586;DHT22;22591;48.314;11.562;2023-03-09T06:31:14;9.40;99.90
36586;DHT22;22591;48.314;11.562;2023-03-09T06:33:41;9.50;99.90
36586;DHT22;22591;48.314;11.562;2023-03-09T06:36:09;9.60;99.90
36586;DHT22;22591;48.314;11.562;2023-03-09T06:38:34;9.60;99.90
36586;DHT22;22591;48.314;11.562;2023-03-09T06:41:00;9.60;99.90
36586;DHT22;22591;48.314;11.562;2023-03-09T06:43:25;9.60;99.90
36586;DHT22;22591;48.314;11.562;2023-03-09T06:45:51;9.60;99.90
36586;DHT22;22591;48.314;11.562;2023-03-09T06:48:16;9.60;99.90
36586;DHT22;22591;48.314;11.562;2023-03-09T06:50:42;9.60;99.90
36586;DHT22;22591;48.314;11.562;2023-03-09T06:53:09;9.70;99.90
36586;DHT22;22591;48.314;11.562;2023-03-09T06:55:36;9.60;99.90
36586;DHT22;22591;48.314;11.562;2023-03-09T06:58:02;9.70;99.90
36586;DHT22;22591;48.314;11.562;2023-03-09T07:00:27;9.70;99.90
36586;DHT22;22591;48.314;11.562;2023-03-09T07:02:53;9.80;99.90
36586;DHT22;22591;48.314;11.562;2023-03-09T07:05:19;9.90;99.90
36586;DHT22;22591;48.314;11.562;2023-03-09T07:07:44;10.10;99.90
36586;DHT22;22591;48.314;11.562;2023-03-09T07:10:11;10.20;99.90
36586;DHT22;22591;48.314;11.562;2023-03-09T07:12:36;10.40;99.90
36586;DHT22;22591;48.314;11.562;2023-03-09T07:15:03;10.50;99.90
36586;DHT22;22591;48.314;11.562;2023-03-09T07:17:29;10.60;99.90
36586;DHT22;22591;48.314;11.562;2023-03-09T07:19:54;10.60;99.90
36586;DHT22;22591;48.314;11.562;2023-03-09T07:22:22;10.40;99.90
36586;DHT22;22591;48.314;11.562;2023-03-09T07:24:48;10.30;99.90
36586;DHT22;22591;48.314;11.562;2023-03-09T07:27:14;10.20;99.90
36586;DHT22;22591;48.314;11.562;2023-03-09T07:29:39;10.10;99.90
36586;DHT22;22591;48.314;11.562;2023-03-09T07:32:06;10.00;99.90
36586;DHT22;22591;48.314;11.562;2023-03-09T07:34:32;9.90;99.90
36586;DHT22;22591;48.314;11.562;2023-03-09T07:36:58;9.80;99.90
36586;DHT22;22591;48.314;11.562;2023-03-09T07:39:24;9.70;99.90
36586;DHT22;22591;48.314;11.562;2023-03-09T07:41:50;9.70;99.90
36586;DHT22;22591;48.314;11.562;2023-03-09T07:44:15;9.80;99.90
36586;DHT22;22591;48.314;11.562;2023-03-09T07:46:41;9.90;99.90
36586;DHT22;22591;48.314;11.562;2023-03-09T07:49:07;10.10;99.90
36586;DHT22;22591;48.314;11.562;2023-03-09T07:51:33;10.30;99.90
36586;DHT22;22591;48.314;11.562;2023-03-09T07:53:58;10.60;99.90
36586;DHT22;22591;48.314;11.562;2023-03-09T07:56:24;11.00;99.90
36586;DHT22;22591;48.314;11.562;2023-03-09T07:58:51;11.30;99.90
36586;DHT22;22591;48.314;11.562;2023-03-09T08:01:18;11.40;99.90
36586;DHT22;22591;48.314;11.562;2023-03-09T08:03:47;11.40;99.90
36586;DHT22;22591;48.314;11.562;2023-03-09T08:06:14;11.40;99.90
36586;DHT22;22591;48.314;11.562;2023-03-09T08:08:40;11.50;99.90
36586;DHT22;22591;48.314;11.562;2023-03-09T08:11:06;11.70;99.90
36586;DHT22;22591;48.314;11.562;2023-03-09T08:13:32;11.90;99.90
36586;DHT22;22591;48.314;11.562;2023-03-09T08:16:01;11.90;99.90
36586;DHT22;22591;48.314;11.562;2023-03-09T08:18:27;11.70;99.90
36586;DHT22;22591;48.314;11.562;2023-03-09T08:20:53;11.40;99.90
36586;DHT22;22591;48.314;11.562;2023-03-09T08:23:19;11.40;99.90
36586;DHT22;22591;48.314;11.562;2023-03-09T08:25:44;11.40;99.90
36586;DHT22;22591;48.314;11.562;2023-03-09T08:28:13;11.50;99.90
36586;DHT22;22591;48.314;11.562;2023-03-09T08:30:39;11.60;99.90
36586;DHT22;22591;48.314;11.562;2023-03-09T08:33:04;11.90;99.90
36586;DHT22;22591;48.314;11.562;2023-03-09T08:35:30;12.20;99.90
36586;DHT22;22591;48.314;11.562;2023-03-09T08:38:02;12.30;99.90
36586;DHT22;22591;48.314;11.562;2023-03-09T08:40:28;12.30;99.90
36586;DHT22;22591;48.314;11.562;2023-03-09T08:42:53;12.30;99.90
36586;DHT22;22591;48.314;11.562;2023-03-09T08:45:19;12.40;99.90
36586;DHT22;22591;48.314;11.562;2023-03-09T08:47:44;12.70;99.90
36586;DHT22;22591;48.314;11.562;2023-03-09T08:50:11;13.10;99.90
36586;DHT22;22591;48.314;11.562;2023-03-09T08:52:37;13.40;99.90
36586;DHT22;22591;48.314;11.562;2023-03-09T08:55:06;13.50;99.90
36586;DHT22;22591;48.314;11.562;2023-03-09T08:57:32;13.30;99.90
36586;DHT22;22591;48.314;11.562;2023-03-09T08:59:58;13.00;99.90
36586;DHT22;22591;48.314;11.562;2023-03-09T09:02:24;13.00;99.90
36586;DHT22;22591;48.314;11.562;2023-03-09T09:04:50;13.30;99.90
36586;DHT22;22591;48.314;11.562;2023-03-09T09:07:16;13.40;99.90
36586;DHT22;22591;48.314;11.562;2023-03-09T09:09:42;13.40;99.90
36586;DHT22;22591;48.314;11.562;2023-03-09T09:12:09;13.40;99.90
36586;DHT22;22591;48.314;11.562;2023-03-09T09:14:35;13.70;99.90
36586;DHT22;22591;48.314;11.562;2023-03-09T09:17:06;13.80;99.90
36586;DHT22;22591;48.314;11.562;2023-03-09T09:19:37;13.70;99.90
36586;DHT22;22591;48.314;11.562;2023-03-09T09:22:03;13.60;99.90
36586;DHT22;22591;48.314;11.562;2023-03-09T09:24:31;13.30;99.90
36586;DHT22;22591;48.314;11.562;2023-03-09T09:26:58;13.00;99.90
36586;DHT22;22591;48.314;11.562;2023-03-09T09:29:24;13.00;99.90
36586;DHT22;22591;48.314;11.562;2023-03-09T09:31:49;12.80;99.90
36586;DHT22;22591;48.314;11.562;2023-03-09T09:34:15;12.70;99.90
36586;DHT22;22591;48.314;11.562;2023-03-09T09:36:43;12.60;99.90
36586;DHT22;22591;48.314;11.562;2023-03-09T09:39:09;12.50;99.90
36586;DHT22;22591;48.314;11.562;2023-03-09T09:41:42;12.50;99.90
36586;DHT22;22591;48.314;11.562;2023-03-09T09:44:19;12.60;99.90
36586;DHT22;22591;48.314;11.562;2023-03-09T09:46:46;12.80;99.90
36586;DHT22;22591;48.314;11.562;2023-03-09T09:49:17;13.00;99.90
36586;DHT22;22591;48.314;11.562;2023-03-09T09:57:43;13.10;99.90
36586;DHT22;22591;48.314;11.562;2023-03-09T10:02:55;13.30;99.90
36586;DHT22;22591;48.314;11.562;2023-03-09T10:08:00;13.70;99.60
36586;DHT22;22591;48.314;11.562;2023-03-09T10:10:29;13.70;99.10
36586;DHT22;22591;48.314;11.562;2023-03-09T10:13:11;13.60;99.20
36586;DHT22;22591;48.314;11.562;2023-03-09T10:15:38;13.50;98.60
36586;DHT22;22591;48.314;11.562;2023-03-09T10:18:16;13.40;99.20
36586;DHT22;22591;48.314;11.562;2023-03-09T10:20:49;13.60;98.90
36586;DHT22;22591;48.314;11.562;2023-03-09T10:23:32;13.70;99.00
36586;DHT22;22591;48.314;11.562;2023-03-09T10:29:02;13.40;98.20
36586;DHT22;22591;48.314;11.562;2023-03-09T10:31:57;13.00;99.20
36586;DHT22;22591;48.314;11.562;2023-03-09T10:34:26;12.80;99.50
36586;DHT22;22591;48.314;11.562;2023-03-09T10:36:59;12.80;99.50
36586;DHT22;22591;48.314;11.562;2023-03-09T10:39:48;12.90;99.40
36586;DHT22;22591;48.314;11.562;2023-03-09T10:50:27;13.30;98.60
36586;DHT22;22591;48.314;11.562;2023-03-09T10:52:54;13.20;98.80
36586;DHT22;22591;48.314;11.562;2023-03-09T10:55:43;13.20;98.70
36586;DHT22;22591;48.314;11.562;2023-03-09T10:58:21;13.40;98.30
36586;DHT22;22591;48.314;11.562;2023-03-09T11:03:42;13.80;97.40
36586;DHT22;22591;48.314;11.562;2023-03-09T11:06:28;13.90;97.40
36586;DHT22;22591;48.314;11.562;2023-03-09T11:09:11;14.10;97.50
36586;DHT22;22591;48.314;11.562;2023-03-09T11:11:38;14.10;97.10
36586;DHT22;22591;48.314;11.562;2023-03-09T11:14:04;14.10;97.10
36586;DHT22;22591;48.314;11.562;2023-03-09T11:16:49;14.20;96.20
36586;DHT22;22591;48.314;11.562;2023-03-09T11:19:17;14.30;96.40
36586;DHT22;22591;48.314;11.562;2023-03-09T11:24:22;14.70;95.90
36586;DHT22;22591;48.314;11.562;2023-03-09T11:26:58;14.80;96.10
36586;DHT22;22591;48.314;11.562;2023-03-09T11:29:56;15.00;95.40
36586;DHT22;22591;48.314;11.562;2023-03-09T11:32:22;14.80;94.90
36586;DHT22;22591;48.314;11.562;2023-03-09T11:34:48;14.80;94.40
36586;DHT22;22591;48.314;11.562;2023-03-09T11:37:29;14.90;93.50
36586;DHT22;22591;48.314;11.562;2023-03-09T11:40:21;14.90;93.40
36586;DHT22;22591;48.314;11.562;2023-03-09T11:45:31;15.30;93.20
36586;DHT22;22591;48.314;11.562;2023-03-09T11:48:00;15.40;92.90
36586;DHT22;22591;48.314;11.562;2023-03-09T11:53:24;14.90;92.80
36586;DHT22;22591;48.314;11.562;2023-03-09T11:58:34;14.40;93.50
36586;DHT22;22591;48.314;11.562;2023-03-09T12:01:27;14.20;93.90
36586;DHT22;22591;48.314;11.562;2023-03-09T12:03:59;14.10;94.10
36586;DHT22;22591;48.314;11.562;2023-03-09T12:09:33;14.00;94.70
36586;DHT22;22591;48.314;11.562;2023-03-09T12:12:30;14.10;94.40
36586;DHT22;22591;48.314;11.562;2023-03-09T12:15:02;14.20;94.10
36586;DHT22;22591;48.314;11.562;2023-03-09T12:17:36;14.20;94.30
36586;DHT22;22591;48.314;11.562;2023-03-09T12:20:02;14.40;93.50
36586;DHT22;22591;48.314;11.562;2023-03-09T12:22:30;14.80;93.20
36586;DHT22;22591;48.314;11.562;2023-03-09T12:24:59;15.10;92.70
36586;DHT22;22591;48.314;11.562;2023-03-09T12:27:27;15.20;90.80
36586;DHT22;22591;48.314;11.562;2023-03-09T12:34:53;15.80;90.50
36586;DHT22;22591;48.314;11.562;2023-03-09T12:40:20;15.60;89.10
36586;DHT22;22591;48.314;11.562;2023-03-09T12:42:48;15.20;89.30
36586;DHT22;22591;48.314;11.562;2023-03-09T12:48:22;15.40;88.70
36586;DHT22;22591;48.314;11.562;2023-03-09T12:53:25;15.70;89.30
36586;DHT22;22591;48.314;11.562;2023-03-09T12:55:53;15.70;89.70
36586;DHT22;22591;48.314;11.562;2023-03-09T13:03:46;15.20;87.90
36586;DHT22;22591;48.314;11.562;2023-03-09T13:06:32;15.20;89.70
36586;DHT22;22591;48.314;11.562;2023-03-09T13:11:36;15.20;89.00
36586;DHT22;22591;48.314;11.562;2023-03-09T13:20:23;14.70;87.00
36586;DHT22;22591;48.314;11.562;2023-03-09T13:22:52;14.90;85.80
36586;DHT22;22591;48.314;11.562;2023-03-09T13:25:31;14.90;86.50
36586;DHT22;22591;48.314;11.562;2023-03-09T13:28:04;15.10;87.60
36586;DHT22;22591;48.314;11.562;2023-03-09T13:30:35;15.20;86.80
36586;DHT22;22591;48.314;11.562;2023-03-09T13:33:06;15.10;85.60
36586;DHT22;22591;48.314;11.562;2023-03-09T13:35:47;14.90;85.90
36586;DHT22;22591;48.314;11.562;2023-03-09T13:38:20;15.00;86.00
36586;DHT22;22591;48.314;11.562;2023-03-09T13:40:55;15.30;85.00
36586;DHT22;22591;48.314;11.562;2023-03-09T13:43:34;15.60;85.30
36586;DHT22;22591;48.314;11.562;2023-03-09T13:46:46;15.70;85.90
36586;DHT22;22591;48.314;11.562;2023-03-09T13:48:59;15.90;85.60
36586;DHT22;22591;48.314;11.562;2023-03-09T13:54:20;15.90;83.90
36586;DHT22;22591;48.314;11.562;2023-03-09T14:00:03;15.60;84.20
36586;DHT22;22591;48.314;11.562;2023-03-09T14:02:33;15.60;84.40
36586;DHT22;22591;48.314;11.562;2023-03-09T14:05:03;15.60;84.60
36586;DHT22;22591;48.314;11.562;2023-03-09T14:07:36;15.60;83.30
36586;DHT22;22591;48.314;11.562;2023-03-09T14:10:05;15.60;83.00
36586;DHT22;22591;48.314;11.562;2023-03-09T14:12:37;15.40;82.60
36586;DHT22;22591;48.314;11.562;2023-03-09T14:15:06;15.50;82.60
36586;DHT22;22591;48.314;11.562;2023-03-09T14:17:40;15.50;81.50
36586;DHT22;22591;48.314;11.562;2023-03-09T14:20:12;15.30;81.80
36586;DHT22;22591;48.314;11.562;2023-03-09T14:22:39;15.20;81.80
36586;DHT22;22591;48.314;11.562;2023-03-09T14:27:48;15.30;81.00
36586;DHT22;22591;48.314;11.562;2023-03-09T14:33:05;15.20;80.50
36586;DHT22;22591;48.314;11.562;2023-03-09T14:35:32;14.80;81.40
36586;DHT22;22591;48.314;11.562;2023-03-09T14:37:58;14.60;82.90
36586;DHT22;22591;48.314;11.562;2023-03-09T14:40:30;14.50;83.30
36586;DHT22;22591;48.314;11.562;2023-03-09T14:43:37;14.40;83.90
36586;DHT22;22591;48.314;11.562;2023-03-09T14:46:16;14.30;83.70
36586;DHT22;22591;48.314;11.562;2023-03-09T14:48:45;14.10;84.10
36586;DHT22;22591;48.314;11.562;2023-03-09T14:51:34;14.10;85.00
36586;DHT22;22591;48.314;11.562;2023-03-09T14:54:02;14.00;85.30
36586;DHT22;22591;48.314;11.562;2023-03-09T14:56:34;13.90;86.20
36586;DHT22;22591;48.314;11.562;2023-03-09T14:59:12;13.80;86.10
36586;DHT22;22591;48.314;11.562;2023-03-09T15:01:40;13.80;86.80
36586;DHT22;22591;48.314;11.562;2023-03-09T15:04:12;13.90;87.30
36586;DHT22;22591;48.314;11.562;2023-03-09T15:06:38;14.10;87.50
36586;DHT22;22591;48.314;11.562;2023-03-09T15:09:04;14.20;86.90
36586;DHT22;22591;48.314;11.562;2023-03-09T15:11:30;14.40;86.30
36586;DHT22;22591;48.314;11.562;2023-03-09T15:13:56;14.50;85.80
36586;DHT22;22591;48.314;11.562;2023-03-09T15:16:21;14.60;86.30
36586;DHT22;22591;48.314;11.562;2023-03-09T15:18:47;14.70;85.60
36586;DHT22;22591;48.314;11.562;2023-03-09T15:21:13;14.80;85.90
36586;DHT22;22591;48.314;11.562;2023-03-09T15:23:38;15.00;85.40
36586;DHT22;22591;48.314;11.562;2023-03-09T15:26:05;15.20;85.60
36586;DHT22;22591;48.314;11.562;2023-03-09T15:28:31;15.30;85.40
36586;DHT22;22591;48.314;11.562;2023-03-09T15:30:57;15.50;83.80
36586;DHT22;22591;48.314;11.562;2023-03-09T15:33:22;15.40;83.10
36586;DHT22;22591;48.314;11.562;2023-03-09T15:35:48;15.40;83.20
36586;DHT22;22591;48.314;11.562;2023-03-09T15:38:13;15.30;82.20
36586;DHT22;22591;48.314;11.562;2023-03-09T15:40:40;15.30;82.60
36586;DHT22;22591;48.314;11.562;2023-03-09T15:43:06;15.20;83.10
36586;DHT22;22591;48.314;11.562;2023-03-09T15:45:32;15.20;83.60
36586;DHT22;22591;48.314;11.562;2023-03-09T15:47:57;15.10;83.70
36586;DHT22;22591;48.314;11.562;2023-03-09T15:50:23;15.10;83.70
36586;DHT22;22591;48.314;11.562;2023-03-09T15:52:49;15.20;84.30
36586;DHT22;22591;48.314;11.562;2023-03-09T15:55:16;15.20;83.60
36586;DHT22;22591;48.314;11.562;2023-03-09T15:57:41;15.10;83.30
36586;DHT22;22591;48.314;11.562;2023-03-09T16:00:08;15.00;83.80
36586;DHT22;22591;48.314;11.562;2023-03-09T16:02:36;14.90;84.40
36586;DHT22;22591;48.314;11.562;2023-03-09T16:05:02;14.60;84.20
36586;DHT22;22591;48.314;11.562;2023-03-09T16:07:27;14.60;83.80
36586;DHT22;22591;48.314;11.562;2023-03-09T16:09:53;14.40;84.00
36586;DHT22;22591;48.314;11.562;2023-03-09T16:12:18;14.30;84.60
36586;DHT22;22591;48.314;11.562;2023-03-09T16:14:44;14.10;85.10
36586;DHT22;22591;48.314;11.562;2023-03-09T16:17:10;14.00;85.30
36586;DHT22;22591;48.314;11.562;2023-03-09T16:19:35;14.00;85.00
36586;DHT22;22591;48.314;11.562;2023-03-09T16:22:01;13.80;85.00
36586;DHT22;22591;48.314;11.562;2023-03-09T16:24:27;13.60;85.80
36586;DHT22;22591;48.314;11.562;2023-03-09T16:26:52;13.60;86.00
36586;DHT22;22591;48.314;11.562;2023-03-09T16:29:18;13.50;85.40
36586;DHT22;22591;48.314;11.562;2023-03-09T16:31:47;13.50;86.10
36586;DHT22;22591;48.314;11.562;2023-03-09T16:34:13;13.40;86.20
36586;DHT22;22591;48.314;11.562;2023-03-09T16:36:38;13.30;86.40
36586;DHT22;22591;48.314;11.562;2023-03-09T16:39:04;13.20;87.10
36586;DHT22;22591;48.314;11.562;2023-03-09T16:41:29;13.10;87.10
36586;DHT22;22591;48.314;11.562;2023-03-09T16:43:55;13.10;87.50
36586;DHT22;22591;48.314;11.562;2023-03-09T16:46:23;13.00;88.20
36586;DHT22;22591;48.314;11.562;2023-03-09T16:48:49;12.80;88.90
36586;DHT22;22591;48.314;11.562;2023-03-09T16:51:18;12.70;89.40
36586;DHT22;22591;48.314;11.562;2023-03-09T16:53:43;12.60;89.90